sensor_id;sensor_type;location;lat;lon;timestamp;temperature;humidity
68215;DHT22;55036;52.138;5.236;2023-04-15T00:01:06;10.80;55.00
68215;DHT22;55036;52.138;5.236;2023-04-15T00:03:33;10.80;54.90
68215;DHT22;55036;52.138;5.236;2023-04-15T00:06:01;10.80;55.10
68215;DHT22;55036;52.138;5.236;2023-04-15T00:08:28;10.90;55.20
68215;DHT22;55036;52.138;5.236;2023-04-15T00:10:55;10.80;55.70
68215;DHT22;55036;52.138;5.236;2023-04-15T00:13:22;10.80;55.60
68215;DHT22;55036;52.138;5.236;2023-04-15T00:15:49;10.90;55.90
68215;DHT22;55036;52.138;5.236;2023-04-15T00:18:15;10.80;55.80
68215;DHT22;55036;52.138;5.236;2023-04-15T00:20:42;10.80;56.00
68215;DHT22;55036;52.138;5.236;2023-04-15T00:23:09;10.90;55.80
68215;DHT22;55036;52.138;5.236;2023-04-15T00:25:35;10.80;56.20
68215;DHT22;55036;52.138;5.236;2023-04-15T00:28:02;10.80;56.30
68215;DHT22;55036;52.138;5.236;2023-04-15T00:30:29;10.80;56.30
68215;DHT22;55036;52.138;5.236;2023-04-15T00:32:56;10.80;56.10
68215;DHT22;55036;52.138;5.236;2023-04-15T00:35:23;10.80;56.20
68215;DHT22;55036;52.138;5.236;2023-04-15T00:37:50;10.80;56.10
68215;DHT22;55036;52.138;5.236;2023-04-15T00:40:18;10.80;56.20
68215;DHT22;55036;52.138;5.236;2023-04-15T00:42:46;10.70;56.40
68215;DHT22;55036;52.138;5.236;2023-04-15T00:45:13;10.70;56.40
68215;DHT22;55036;52.138;5.236;2023-04-15T00:47:43;10.70;56.30
68215;DHT22;55036;52.138;5.236;2023-04-15T00:50:11;10.60;56.90
68215;DHT22;55036;52.138;5.236;2023-04-15T00:52:39;10.60;56.80
68215;DHT22;55036;52.138;5.236;2023-04-15T00:55:07;10.60;57.20
68215;DHT22;55036;52.138;5.236;2023-04-15T00:57:35;10.40;57.70
68215;DHT22;55036;52.138;5.236;2023-04-15T01:00:02;10.40;57.60
68215;DHT22;55036;52.138;5.236;2023-04-15T01:02:31;10.40;57.60
68215;DHT22;55036;52.138;5.236;2023-04-15T01:04:59;10.20;58.10
68215;DHT22;55036;52.138;5.236;2023-04-15T01:07:27;10.10;58.10
68215;DHT22;55036;52.138;5.236;2023-04-15T01:09:53;10.20;57.70
68215;DHT22;55036;52.138;5.236;2023-04-15T01:12:20;10.20;57.90
68215;DHT22;55036;52.138;5.236;2023-04-15T01:14:47;10.10;59.10
68215;DHT22;55036;52.138;5.236;2023-04-15T01:17:13;10.00;58.60
68215;DHT22;55036;52.138;5.236;2023-04-15T01:19:40;10.00;58.60
68215;DHT22;55036;52.138;5.236;2023-04-15T01:22:07;9.90;59.10
68215;DHT22;55036;52.138;5.236;2023-04-15T01:24:34;9.90;59.90
68215;DHT22;55036;52.138;5.236;2023-04-15T01:27:03;9.80;59.20
68215;DHT22;55036;52.138;5.236;2023-04-15T01:29:31;9.90;59.40
68215;DHT22;55036;52.138;5.236;2023-04-15T01:31:58;9.80;59.70
68215;DHT22;55036;52.138;5.236;2023-04-15T01:34:25;9.70;59.70
68215;DHT22;55036;52.138;5.236;2023-04-15T01:36:52;9.70;59.80
68215;DHT22;55036;52.138;5.236;2023-04-15T01:39:19;9.70;60.50
68215;DHT22;55036;52.138;5.236;2023-04-15T01:41:46;9.60;60.40
68215;DHT22;55036;52.138;5.236;2023-04-15T01:44:12;9.50;61.60
68215;DHT22;55036;52.138;5.236;2023-04-15T01:46:39;9.40;61.50
68215;DHT22;55036;52.138;5.236;2023-04-15T01:49:06;9.40;62.10
68215;DHT22;55036;52.138;5.236;2023-04-15T01:51:33;9.30;61.70
68215;DHT22;55036;52.138;5.236;2023-04-15T01:53:59;9.40;61.60
68215;DHT22;55036;52.138;5.236;2023-04-15T01:56:26;9.40;61.40
68215;DHT22;55036;52.138;5.236;2023-04-15T01:58:53;9.40;61.40
68215;DHT22;55036;52.138;5.236;2023-04-15T02:01:20;9.40;62.00
68215;DHT22;55036;52.138;5.236;2023-04-15T02:03:47;9.30;61.80
68215;DHT22;55036;52.138;5.236;2023-04-15T02:06:14;9.30;61.90
68215;DHT22;55036;52.138;5.236;2023-04-15T02:08:41;9.20;62.20
68215;DHT22;55036;52.138;5.236;2023-04-15T02:11:08;9.30;62.10
68215;DHT22;55036;52.138;5.236;2023-04-15T02:13:35;9.30;61.70
68215;DHT22;55036;52.138;5.236;2023-04-15T02:16:02;9.40;61.70
68215;DHT22;55036;52.138;5.236;2023-04-15T02:18:29;9.40;61.70
68215;DHT22;55036;52.138;5.236;2023-04-15T02:20:56;9.40;61.80
68215;DHT22;55036;52.138;5.236;2023-04-15T02:23:24;9.40;61.70
68215;DHT22;55036;52.138;5.236;2023-04-15T02:25:51;9.40;62.20
68215;DHT22;55036;52.138;5.236;2023-04-15T02:28:20;9.30;62.60
68215;DHT22;55036;52.138;5.236;2023-04-15T02:30:48;9.40;62.80
68215;DHT22;55036;52.138;5.236;2023-04-15T02:33:18;9.30;62.40
68215;DHT22;55036;52.138;5.236;2023-04-15T02:35:45;9.30;62.40
68215;DHT22;55036;52.138;5.236;2023-04-15T02:38:12;9.30;62.50
68215;DHT22;55036;52.138;5.236;2023-04-15T02:40:39;9.20;62.60
68215;DHT22;55036;52.138;5.236;2023-04-15T02:43:06;9.20;62.50
68215;DHT22;55036;52.138;5.236;2023-04-15T02:45:33;9.10;62.70
68215;DHT22;55036;52.138;5.236;2023-04-15T02:48:00;9.10;62.80
68215;DHT22;55036;52.138;5.236;2023-04-15T02:50:31;9.00;62.90
68215;DHT22;55036;52.138;5.236;2023-04-15T02:52:58;9.00;63.90
68215;DHT22;55036;52.138;5.236;2023-04-15T02:55:27;8.90;63.40
68215;DHT22;55036;52.138;5.236;2023-04-15T02:57:54;8.90;63.60
68215;DHT22;55036;52.138;5.236;2023-04-15T03:00:21;8.90;63.60
68215;DHT22;55036;52.138;5.236;2023-04-15T03:02:50;8.90;63.70
68215;DHT22;55036;52.138;5.236;2023-04-15T03:05:22;9.00;63.90
68215;DHT22;55036;52.138;5.236;2023-04-15T03:07:52;8.90;63.70
68215;DHT22;55036;52.138;5.236;2023-04-15T03:10:19;8.90;64.00
68215;DHT22;55036;52.138;5.236;2023-04-15T03:12:46;8.80;64.40
68215;DHT22;55036;52.138;5.236;2023-04-15T03:15:13;8.70;64.60
68215;DHT22;55036;52.138;5.236;2023-04-15T03:17:40;8.70;64.40
68215;DHT22;55036;52.138;5.236;2023-04-15T03:20:07;8.70;65.90
68215;DHT22;55036;52.138;5.236;2023-04-15T03:22:34;8.60;64.90
68215;DHT22;55036;52.138;5.236;2023-04-15T03:25:00;8.50;66.10
68215;DHT22;55036;52.138;5.236;2023-04-15T03:27:27;8.30;66.60
68215;DHT22;55036;52.138;5.236;2023-04-15T03:29:54;8.30;66.70
68215;DHT22;55036;52.138;5.236;2023-04-15T03:32:22;8.30;66.20
68215;DHT22;55036;52.138;5.236;2023-04-15T03:34:48;8.30;66.20
68215;DHT22;55036;52.138;5.236;2023-04-15T03:37:15;8.30;66.10
68215;DHT22;55036;52.138;5.236;2023-04-15T03:39:42;8.40;68.10
68215;DHT22;55036;52.138;5.236;2023-04-15T03:42:09;8.30;67.20
68215;DHT22;55036;52.138;5.236;2023-04-15T03:44:35;8.30;66.80
68215;DHT22;55036;52.138;5.236;2023-04-15T03:47:02;8.30;66.70
68215;DHT22;55036;52.138;5.236;2023-04-15T03:49:29;8.30;67.00
68215;DHT22;55036;52.138;5.236;2023-04-15T03:51:55;8.30;66.90
68215;DHT22;55036;52.138;5.236;2023-04-15T03:54:22;8.30;67.10
68215;DHT22;55036;52.138;5.236;2023-04-15T03:56:49;8.30;67.00
68215;DHT22;55036;52.138;5.236;2023-04-15T03:59:16;8.30;67.30
68215;DHT22;55036;52.138;5.236;2023-04-15T04:01:42;8.30;67.10
68215;DHT22;55036;52.138;5.236;2023-04-15T04:04:09;8.30;67.20
68215;DHT22;55036;52.138;5.236;2023-04-15T04:06:36;8.30;67.30
68215;DHT22;55036;52.138;5.236;2023-04-15T04:09:03;8.20;67.30
68215;DHT22;55036;52.138;5.236;2023-04-15T04:11:29;8.20;67.70
68215;DHT22;55036;52.138;5.236;2023-04-15T04:13:57;8.10;67.60
68215;DHT22;55036;52.138;5.236;2023-04-15T04:16:24;8.10;68.30
68215;DHT22;55036;52.138;5.236;2023-04-15T04:18:51;8.00;68.00
68215;DHT22;55036;52.138;5.236;2023-04-15T04:21:17;8.00;68.00
68215;DHT22;55036;52.138;5.236;2023-04-15T04:23:45;8.10;68.30
68215;DHT22;55036;52.138;5.236;2023-04-15T04:26:12;8.10;68.30
68215;DHT22;55036;52.138;5.236;2023-04-15T04:28:38;7.90;68.80
68215;DHT22;55036;52.138;5.236;2023-04-15T04:31:06;7.90;68.60
68215;DHT22;55036;52.138;5.236;2023-04-15T04:33:33;7.90;68.50
68215;DHT22;55036;52.138;5.236;2023-04-15T04:36:00;7.80;69.50
68215;DHT22;55036;52.138;5.236;2023-04-15T04:38:26;7.80;70.50
68215;DHT22;55036;52.138;5.236;2023-04-15T04:40:53;7.70;70.30
68215;DHT22;55036;52.138;5.236;2023-04-15T04:43:20;7.70;70.60
68215;DHT22;55036;52.138;5.236;2023-04-15T04:45:47;7.60;71.70
68215;DHT22;55036;52.138;5.236;2023-04-15T04:48:14;7.40;72.90
68215;DHT22;55036;52.138;5.236;2023-04-15T04:50:40;7.40;71.40
68215;DHT22;55036;52.138;5.236;2023-04-15T04:53:07;7.50;71.80
68215;DHT22;55036;52.138;5.236;2023-04-15T04:55:34;7.40;73.20
68215;DHT22;55036;52.138;5.236;2023-04-15T04:58:02;7.40;72.50
68215;DHT22;55036;52.138;5.236;2023-04-15T05:00:29;7.40;73.70
68215;DHT22;55036;52.138;5.236;2023-04-15T05:02:55;7.40;73.30
68215;DHT22;55036;52.138;5.236;2023-04-15T05:05:22;7.40;73.10
68215;DHT22;55036;52.138;5.236;2023-04-15T05:07:49;7.50;74.90
68215;DHT22;55036;52.138;5.236;2023-04-15T05:10:16;7.40;74.20
68215;DHT22;55036;52.138;5.236;2023-04-15T05:12:43;7.50;74.30
68215;DHT22;55036;52.138;5.236;2023-04-15T05:15:10;7.40;74.50
68215;DHT22;55036;52.138;5.236;2023-04-15T05:17:37;7.60;74.50
68215;DHT22;55036;52.138;5.236;2023-04-15T05:20:04;7.60;74.90
68215;DHT22;55036;52.138;5.236;2023-04-15T05:22:31;7.60;75.40
68215;DHT22;55036;52.138;5.236;2023-04-15T05:24:58;7.50;75.30
68215;DHT22;55036;52.138;5.236;2023-04-15T05:27:25;7.50;76.40
68215;DHT22;55036;52.138;5.236;2023-04-15T05:29:52;7.50;77.30
68215;DHT22;55036;52.138;5.236;2023-04-15T05:32:18;7.80;76.10
68215;DHT22;55036;52.138;5.236;2023-04-15T05:34:45;8.00;75.60
68215;DHT22;55036;52.138;5.236;2023-04-15T05:37:12;8.00;75.10
68215;DHT22;55036;52.138;5.236;2023-04-15T05:39:39;7.90;76.80
68215;DHT22;55036;52.138;5.236;2023-04-15T05:42:05;7.70;77.80
68215;DHT22;55036;52.138;5.236;2023-04-15T05:44:33;7.60;76.80
68215;DHT22;55036;52.138;5.236;2023-04-15T05:46:59;7.60;77.40
68215;DHT22;55036;52.138;5.236;2023-04-15T05:49:26;7.70;77.20
68215;DHT22;55036;52.138;5.236;2023-04-15T05:51:53;7.70;77.30
68215;DHT22;55036;52.138;5.236;2023-04-15T05:54:19;7.70;77.50
68215;DHT22;55036;52.138;5.236;2023-04-15T05:56:48;7.70;78.20
68215;DHT22;55036;52.138;5.236;2023-04-15T05:59:15;7.80;77.70
68215;DHT22;55036;52.138;5.236;2023-04-15T06:01:42;7.90;77.50
68215;DHT22;55036;52.138;5.236;2023-04-15T06:04:09;8.00;77.50
68215;DHT22;55036;52.138;5.236;2023-04-15T06:06:37;7.90;78.90
68215;DHT22;55036;52.138;5.236;2023-04-15T06:09:04;8.00;77.80
68215;DHT22;55036;52.138;5.236;2023-04-15T06:11:30;8.20;77.50
68215;DHT22;55036;52.138;5.236;2023-04-15T06:13:57;8.40;76.80
68215;DHT22;55036;52.138;5.236;2023-04-15T06:16:24;8.60;76.50
68215;DHT22;55036;52.138;5.236;2023-04-15T06:18:50;8.60;76.20
68215;DHT22;55036;52.138;5.236;2023-04-15T06:21:17;8.80;76.20
68215;DHT22;55036;52.138;5.236;2023-04-15T06:23:44;9.10;76.00
68215;DHT22;55036;52.138;5.236;2023-04-15T06:26:11;9.10;75.30
68215;DHT22;55036;52.138;5.236;2023-04-15T06:28:37;9.10;75.70
68215;DHT22;55036;52.138;5.236;2023-04-15T06:31:04;9.20;75.40
68215;DHT22;55036;52.138;5.236;2023-04-15T06:33:31;9.20;75.40
68215;DHT22;55036;52.138;5.236;2023-04-15T06:35:57;9.30;75.70
68215;DHT22;55036;52.138;5.236;2023-04-15T06:38:24;9.40;75.00
68215;DHT22;55036;52.138;5.236;2023-04-15T06:40:51;9.40;75.50
68215;DHT22;55036;52.138;5.236;2023-04-15T06:43:18;9.60;74.80
68215;DHT22;55036;52.138;5.236;2023-04-15T06:45:45;9.80;74.30
68215;DHT22;55036;52.138;5.236;2023-04-15T06:48:12;9.80;74.20
68215;DHT22;55036;52.138;5.236;2023-04-15T06:50:39;9.80;75.10
68215;DHT22;55036;52.138;5.236;2023-04-15T06:53:06;9.80;74.60
68215;DHT22;55036;52.138;5.236;2023-04-15T06:55:33;9.90;74.30
68215;DHT22;55036;52.138;5.236;2023-04-15T06:58:00;9.80;74.70
68215;DHT22;55036;52.138;5.236;2023-04-15T07:00:26;9.80;74.50
68215;DHT22;55036;52.138;5.236;2023-04-15T07:02:54;9.80;75.30
68215;DHT22;55036;52.138;5.236;2023-04-15T07:05:21;10.00;75.30
68215;DHT22;55036;52.138;5.236;2023-04-15T07:07:47;10.30;75.30
68215;DHT22;55036;52.138;5.236;2023-04-15T07:10:14;10.50;73.20
68215;DHT22;55036;52.138;5.236;2023-04-15T07:12:41;10.40;73.50
68215;DHT22;55036;52.138;5.236;2023-04-15T07:15:08;10.40;73.20
68215;DHT22;55036;52.138;5.236;2023-04-15T07:17:35;10.40;73.20
68215;DHT22;55036;52.138;5.236;2023-04-15T07:20:02;10.50;73.20
68215;DHT22;55036;52.138;5.236;2023-04-15T07:22:30;10.60;73.00
68215;DHT22;55036;52.138;5.236;2023-04-15T07:24:57;10.60;73.00
68215;DHT22;55036;52.138;5.236;2023-04-15T07:27:23;10.60;73.30
68215;DHT22;55036;52.138;5.236;2023-04-15T07:29:50;10.90;72.50
68215;DHT22;55036;52.138;5.236;2023-04-15T07:32:18;11.00;71.10
68215;DHT22;55036;52.138;5.236;2023-04-15T07:34:44;10.90;71.30
68215;DHT22;55036;52.138;5.236;2023-04-15T07:37:11;11.00;71.70
68215;DHT22;55036;52.138;5.236;2023-04-15T07:39:39;11.20;71.50
68215;DHT22;55036;52.138;5.236;2023-04-15T07:42:05;11.30;70.10
68215;DHT22;55036;52.138;5.236;2023-04-15T07:44:32;11.50;71.50
68215;DHT22;55036;52.138;5.236;2023-04-15T07:47:01;11.80;69.10
68215;DHT22;55036;52.138;5.236;2023-04-15T07:49:28;11.90;68.30
68215;DHT22;55036;52.138;5.236;2023-04-15T07:51:54;11.80;67.30
68215;DHT22;55036;52.138;5.236;2023-04-15T07:54:23;11.70;66.60
68215;DHT22;55036;52.138;5.236;2023-04-15T07:56:49;11.80;66.40
68215;DHT22;55036;52.138;5.236;2023-04-15T07:59:16;11.80;66.90
68215;DHT22;55036;52.138;5.236;2023-04-15T08:01:43;11.90;65.20
68215;DHT22;55036;52.138;5.236;2023-04-15T08:04:10;11.90;65.60
68215;DHT22;55036;52.138;5.236;2023-04-15T08:06:37;11.90;66.30
68215;DHT22;55036;52.138;5.236;2023-04-15T08:09:05;12.10;65.40
68215;DHT22;55036;52.138;5.236;2023-04-15T08:11:33;12.20;65.10
68215;DHT22;55036;52.138;5.236;2023-04-15T08:14:00;12.20;65.60
68215;DHT22;55036;52.138;5.236;2023-04-15T08:16:27;12.40;64.20
68215;DHT22;55036;52.138;5.236;2023-04-15T08:18:55;12.70;62.90
68215;DHT22;55036;52.138;5.236;2023-04-15T08:21:23;12.70;64.50
68215;DHT22;55036;52.138;5.236;2023-04-15T08:23:51;12.80;64.60
68215;DHT22;55036;52.138;5.236;2023-04-15T08:26:19;13.00;63.50
68215;DHT22;55036;52.138;5.236;2023-04-15T08:28:47;13.10;62.30
68215;DHT22;55036;52.138;5.236;2023-04-15T08:31:15;13.10;62.60
68215;DHT22;55036;52.138;5.236;2023-04-15T08:33:42;13.00;62.20
68215;DHT22;55036;52.138;5.236;2023-04-15T08:36:09;13.10;63.30
68215;DHT22;55036;52.138;5.236;2023-04-15T08:38:36;13.30;61.90
68215;DHT22;55036;52.138;5.236;2023-04-15T08:41:22;13.50;60.60
68215;DHT22;55036;52.138;5.236;2023-04-15T08:43:56;13.60;60.60
68215;DHT22;55036;52.138;5.236;2023-04-15T08:46:23;13.50;62.00
68215;DHT22;55036;52.138;5.236;2023-04-15T08:48:49;13.60;60.80
68215;DHT22;55036;52.138;5.236;2023-04-15T08:51:17;13.80;60.70
68215;DHT22;55036;52.138;5.236;2023-04-15T08:53:44;13.80;58.00
68215;DHT22;55036;52.138;5.236;2023-04-15T08:56:14;13.80;58.20
68215;DHT22;55036;52.138;5.236;2023-04-15T08:58:43;13.80;58.00
68215;DHT22;55036;52.138;5.236;2023-04-15T09:01:11;13.80;57.50
68215;DHT22;55036;52.138;5.236;2023-04-15T09:03:39;13.90;58.60
68215;DHT22;55036;52.138;5.236;2023-04-15T09:06:07;14.10;58.50
68215;DHT22;55036;52.138;5.236;2023-04-15T09:08:34;14.30;55.70
68215;DHT22;55036;52.138;5.236;2023-04-15T09:11:04;14.40;57.50
68215;DHT22;55036;52.138;5.236;2023-04-15T09:13:31;14.70;55.80
68215;DHT22;55036;52.138;5.236;2023-04-15T09:15:57;14.80;55.20
68215;DHT22;55036;52.138;5.236;2023-04-15T09:18:32;14.80;55.90
68215;DHT22;55036;52.138;5.236;2023-04-15T09:21:08;14.70;56.50
68215;DHT22;55036;52.138;5.236;2023-04-15T09:23:38;14.80;54.60
68215;DHT22;55036;52.138;5.236;2023-04-15T09:26:05;14.90;56.10
68215;DHT22;55036;52.138;5.236;2023-04-15T09:28:33;14.80;54.70
68215;DHT22;55036;52.138;5.236;2023-04-15T09:31:06;14.80;55.00
68215;DHT22;55036;52.138;5.236;2023-04-15T09:33:33;14.90;54.60
68215;DHT22;55036;52.138;5.236;2023-04-15T09:36:02;14.80;54.10
68215;DHT22;55036;52.138;5.236;2023-04-15T09:38:30;14.80;53.60
68215;DHT22;55036;52.138;5.236;2023-04-15T09:40:58;14.70;54.80
68215;DHT22;55036;52.138;5.236;2023-04-15T09:43:45;14.70;53.90
68215;DHT22;55036;52.138;5.236;2023-04-15T09:46:12;14.60;52.80
68215;DHT22;55036;52.138;5.236;2023-04-15T09:48:38;14.30;54.50
68215;DHT22;55036;52.138;5.236;2023-04-15T09:51:05;14.40;55.50
68215;DHT22;55036;52.138;5.236;2023-04-15T09:53:35;14.60;54.70
68215;DHT22;55036;52.138;5.236;2023-04-15T09:56:02;14.80;54.80
68215;DHT22;55036;52.138;5.236;2023-04-15T09:58:31;14.90;54.60
68215;DHT22;55036;52.138;5.236;2023-04-15T10:00:59;14.90;53.90
68215;DHT22;55036;52.138;5.236;2023-04-15T10:03:29;14.80;54.90
68215;DHT22;55036;52.138;5.236;2023-04-15T10:05:59;14.90;54.80
68215;DHT22;55036;52.138;5.236;2023-04-15T10:08:30;15.10;55.20
68215;DHT22;55036;52.138;5.236;2023-04-15T10:10:59;15.30;53.00
68215;DHT22;55036;52.138;5.236;2023-04-15T10:13:29;15.10;54.80
68215;DHT22;55036;52.138;5.236;2023-04-15T10:16:00;15.20;53.50
68215;DHT22;55036;52.138;5.236;2023-04-15T10:18:33;15.40;53.10
68215;DHT22;55036;52.138;5.236;2023-04-15T10:21:00;15.40;52.80
68215;DHT22;55036;52.138;5.236;2023-04-15T10:23:28;15.40;52.80
68215;DHT22;55036;52.138;5.236;2023-04-15T10:25:55;15.40;54.10
68215;DHT22;55036;52.138;5.236;2023-04-15T10:28:23;15.60;54.50
68215;DHT22;55036;52.138;5.236;2023-04-15T10:30:51;15.90;53.80
68215;DHT22;55036;52.138;5.236;2023-04-15T10:33:23;16.00;53.00
68215;DHT22;55036;52.138;5.236;2023-04-15T10:35:52;16.00;52.70
68215;DHT22;55036;52.138;5.236;2023-04-15T10:43:38;16.20;53.20
68215;DHT22;55036;52.138;5.236;2023-04-15T10:46:05;16.50;53.00
68215;DHT22;55036;52.138;5.236;2023-04-15T10:48:33;16.50;52.70
68215;DHT22;55036;52.138;5.236;2023-04-15T10:51:00;16.20;53.00
68215;DHT22;55036;52.138;5.236;2023-04-15T10:53:30;16.10;53.60
68215;DHT22;55036;52.138;5.236;2023-04-15T10:55:58;16.00;53.90
68215;DHT22;55036;52.138;5.236;2023-04-15T10:58:25;16.10;53.90
68215;DHT22;55036;52.138;5.236;2023-04-15T11:00:53;16.20;54.00
68215;DHT22;55036;52.138;5.236;2023-04-15T11:03:37;16.10;52.70
68215;DHT22;55036;52.138;5.236;2023-04-15T11:06:05;16.00;53.20
68215;DHT22;55036;52.138;5.236;2023-04-15T11:08:52;16.10;52.90
68215;DHT22;55036;52.138;5.236;2023-04-15T11:11:19;16.30;52.40
68215;DHT22;55036;52.138;5.236;2023-04-15T11:13:48;16.20;51.50
68215;DHT22;55036;52.138;5.236;2023-04-15T11:16:15;16.10;49.90
68215;DHT22;55036;52.138;5.236;2023-04-15T11:18:53;16.10;51.90
68215;DHT22;55036;52.138;5.236;2023-04-15T11:21:23;16.20;52.50
68215;DHT22;55036;52.138;5.236;2023-04-15T11:23:51;16.20;50.80
68215;DHT22;55036;52.138;5.236;2023-04-15T11:26:18;16.40;51.80
68215;DHT22;55036;52.138;5.236;2023-04-15T11:28:45;16.40;50.50
68215;DHT22;55036;52.138;5.236;2023-04-15T11:31:16;16.00;50.20
68215;DHT22;55036;52.138;5.236;2023-04-15T11:33:55;16.10;50.70
68215;DHT22;55036;52.138;5.236;2023-04-15T11:36:26;16.20;49.00
68215;DHT22;55036;52.138;5.236;2023-04-15T11:38:54;15.90;49.90
68215;DHT22;55036;52.138;5.236;2023-04-15T11:41:22;15.80;51.10
68215;DHT22;55036;52.138;5.236;2023-04-15T11:43:50;16.00;51.00
68215;DHT22;55036;52.138;5.236;2023-04-15T11:46:17;16.20;50.90
68215;DHT22;55036;52.138;5.236;2023-04-15T11:48:45;16.40;50.50
68215;DHT22;55036;52.138;5.236;2023-04-15T11:51:13;16.20;51.10
68215;DHT22;55036;52.138;5.236;2023-04-15T11:53:47;15.70;51.60
68215;DHT22;55036;52.138;5.236;2023-04-15T11:56:20;15.60;51.10
68215;DHT22;55036;52.138;5.236;2023-04-15T11:58:47;15.40;52.10
68215;DHT22;55036;52.138;5.236;2023-04-15T12:01:16;15.50;51.60
68215;DHT22;55036;52.138;5.236;2023-04-15T12:03:47;15.70;52.40
68215;DHT22;55036;52.138;5.236;2023-04-15T12:06:16;16.10;50.70
68215;DHT22;55036;52.138;5.236;2023-04-15T12:13:54;16.20;53.20
68215;DHT22;55036;52.138;5.236;2023-04-15T12:16:23;15.90;51.50
68215;DHT22;55036;52.138;5.236;2023-04-15T12:18:51;15.90;51.30
68215;DHT22;55036;52.138;5.236;2023-04-15T12:21:20;15.50;51.40
68215;DHT22;55036;52.138;5.236;2023-04-15T12:23:51;15.30;52.00
68215;DHT22;55036;52.138;5.236;2023-04-15T12:26:25;15.40;52.80
68215;DHT22;55036;52.138;5.236;2023-04-15T12:29:03;15.70;52.20
68215;DHT22;55036;52.138;5.236;2023-04-15T12:31:30;15.60;51.90
68215;DHT22;55036;52.138;5.236;2023-04-15T12:33:58;15.80;52.20
68215;DHT22;55036;52.138;5.236;2023-04-15T12:36:27;15.50;51.50
68215;DHT22;55036;52.138;5.236;2023-04-15T12:38:53;15.50;52.40
68215;DHT22;55036;52.138;5.236;2023-04-15T12:41:20;15.70;52.50
68215;DHT22;55036;52.138;5.236;2023-04-15T12:43:47;15.80;51.80
68215;DHT22;55036;52.138;5.236;2023-04-15T12:46:14;15.60;51.90
68215;DHT22;55036;52.138;5.236;2023-04-15T12:48:41;15.50;52.30
68215;DHT22;55036;52.138;5.236;2023-04-15T12:51:08;15.20;52.60
68215;DHT22;55036;52.138;5.236;2023-04-15T12:53:34;15.20;53.10
68215;DHT22;55036;52.138;5.236;2023-04-15T12:56:01;15.10;52.60
68215;DHT22;55036;52.138;5.236;2023-04-15T12:58:28;15.20;53.00
68215;DHT22;55036;52.138;5.236;2023-04-15T13:00:54;15.40;53.00
68215;DHT22;55036;52.138;5.236;2023-04-15T13:03:22;15.50;53.20
68215;DHT22;55036;52.138;5.236;2023-04-15T13:05:49;15.40;53.20
68215;DHT22;55036;52.138;5.236;2023-04-15T13:08:16;15.40;52.80
68215;DHT22;55036;52.138;5.236;2023-04-15T13:10:43;15.00;53.70
68215;DHT22;55036;52.138;5.236;2023-04-15T13:13:10;15.10;54.80
68215;DHT22;55036;52.138;5.236;2023-04-15T13:15:36;15.40;53.70
68215;DHT22;55036;52.138;5.236;2023-04-15T13:18:05;15.60;53.20
68215;DHT22;55036;52.138;5.236;2023-04-15T13:20:32;15.60;53.50
68215;DHT22;55036;52.138;5.236;2023-04-15T13:22:58;15.60;52.10
68215;DHT22;55036;52.138;5.236;2023-04-15T13:25:25;15.30;52.70
68215;DHT22;55036;52.138;5.236;2023-04-15T13:27:53;15.10;53.00
68215;DHT22;55036;52.138;5.236;2023-04-15T13:30:19;14.80;54.00
68215;DHT22;55036;52.138;5.236;2023-04-15T13:32:46;14.60;55.00
68215;DHT22;55036;52.138;5.236;2023-04-15T13:35:16;14.50;55.90
68215;DHT22;55036;52.138;5.236;2023-04-15T13:37:42;14.40;56.10
68215;DHT22;55036;52.138;5.236;2023-04-15T13:40:09;14.40;56.80
68215;DHT22;55036;52.138;5.236;2023-04-15T13:42:37;14.60;56.30
68215;DHT22;55036;52.138;5.236;2023-04-15T13:45:04;14.70;55.90
68215;DHT22;55036;52.138;5.236;2023-04-15T13:47:31;14.70;55.70
68215;DHT22;55036;52.138;5.236;2023-04-15T13:49:57;14.50;56.20
68215;DHT22;55036;52.138;5.236;2023-04-15T13:52:24;14.40;56.50
68215;DHT22;55036;52.138;5.236;2023-04-15T13:54:51;14.30;56.30
68215;DHT22;55036;52.138;5.236;2023-04-15T13:57:37;14.30;56.80
68215;DHT22;55036;52.138;5.236;2023-04-15T14:00:04;14.10;58.00
68215;DHT22;55036;52.138;5.236;2023-04-15T14:02:31;14.00;58.50
68215;DHT22;55036;52.138;5.236;2023-04-15T14:04:58;14.00;58.10
68215;DHT22;55036;52.138;5.236;2023-04-15T14:07:25;13.90;58.40
68215;DHT22;55036;52.138;5.236;2023-04-15T14:09:52;13.60;59.70
68215;DHT22;55036;52.138;5.236;2023-04-15T14:12:18;13.50;59.80
68215;DHT22;55036;52.138;5.236;2023-04-15T14:14:45;13.40;60.00
68215;DHT22;55036;52.138;5.236;2023-04-15T14:17:11;13.50;60.00
68215;DHT22;55036;52.138;5.236;2023-04-15T14:19:38;13.60;59.50
68215;DHT22;55036;52.138;5.236;2023-04-15T14:22:05;13.60;59.80
68215;DHT22;55036;52.138;5.236;2023-04-15T14:24:31;13.60;60.00
68215;DHT22;55036;52.138;5.236;2023-04-15T14:26:58;13.50;59.60
68215;DHT22;55036;52.138;5.236;2023-04-15T14:29:25;13.40;60.30
68215;DHT22;55036;52.138;5.236;2023-04-15T14:31:52;13.20;61.60
68215;DHT22;55036;52.138;5.236;2023-04-15T14:34:38;13.10;62.40
68215;DHT22;55036;52.138;5.236;2023-04-15T14:37:04;13.20;63.20
68215;DHT22;55036;52.138;5.236;2023-04-15T14:39:31;13.30;62.50
68215;DHT22;55036;52.138;5.236;2023-04-15T14:41:58;13.50;61.20
68215;DHT22;55036;52.138;5.236;2023-04-15T14:44:25;13.40;59.00
68215;DHT22;55036;52.138;5.236;2023-04-15T14:46:52;13.20;59.90
68215;DHT22;55036;52.138;5.236;2023-04-15T14:49:19;13.10;60.80
68215;DHT22;55036;52.138;5.236;2023-04-15T14:51:45;13.10;60.70
68215;DHT22;55036;52.138;5.236;2023-04-15T14:54:12;13.10;60.70
68215;DHT22;55036;52.138;5.236;2023-04-15T14:56:39;13.00;61.10
68215;DHT22;55036;52.138;5.236;2023-04-15T14:59:05;13.00;61.50
68215;DHT22;55036;52.138;5.236;2023-04-15T15:01:33;12.90;61.80
68215;DHT22;55036;52.138;5.236;2023-04-15T15:04:00;12.80;61.80
68215;DHT22;55036;52.138;5.236;2023-04-15T15:06:27;12.80;61.20
68215;DHT22;55036;52.138;5.236;2023-04-15T15:08:53;12.70;61.10
68215;DHT22;55036;52.138;5.236;2023-04-15T15:11:20;12.60;61.80
68215;DHT22;55036;52.138;5.236;2023-04-15T15:13:47;12.60;62.80
68215;DHT22;55036;52.138;5.236;2023-04-15T15:16:13;12.60;63.20
68215;DHT22;55036;52.138;5.236;2023-04-15T15:18:40;12.60;63.40
68215;DHT22;55036;52.138;5.236;2023-04-15T15:21:07;12.60;63.30
68215;DHT22;55036;52.138;5.236;2023-04-15T15:23:34;12.60;63.90
68215;DHT22;55036;52.138;5.236;2023-04-15T15:26:00;12.60;64.10
68215;DHT22;55036;52.138;5.236;2023-04-15T15:28:27;12.50;63.70
68215;DHT22;55036;52.138;5.236;2023-04-15T15:30:54;12.50;64.00
68215;DHT22;55036;52.138;5.236;2023-04-15T15:33:21;12.40;63.10
68215;DHT22;55036;52.138;5.236;2023-04-15T15:35:47;12.30;63.60
68215;DHT22;55036;52.138;5.236;2023-04-15T15:38:15;12.40;63.60
68215;DHT22;55036;52.138;5.236;2023-04-15T15:40:42;12.50;63.40
68215;DHT22;55036;52.138;5.236;2023-04-15T15:43:09;12.60;63.00
68215;DHT22;55036;52.138;5.236;2023-04-15T15:45:36;12.60;63.10
68215;DHT22;55036;52.138;5.236;2023-04-15T15:48:03;12.60;63.40
68215;DHT22;55036;52.138;5.236;2023-04-15T15:50:30;12.50;64.30